createdAt,value
2019-02-27T00:02:27.732Z,8.80
2019-02-27T00:04:59.048Z,8.70
2019-02-27T00:07:30.447Z,8.70
2019-02-27T00:10:05.893Z,8.70
2019-02-27T00:12:35.232Z,8.60
2019-02-27T00:15:06.929Z,8.60
2019-02-27T00:17:38.652Z,8.60
2019-02-27T00:20:10.013Z,8.50
2019-02-27T00:22:42.354Z,8.50
2019-02-27T00:25:13.748Z,8.40
2019-02-27T00:27:48.845Z,8.40
2019-02-27T00:30:18.381Z,8.40
2019-02-27T00:32:51.244Z,8.30
2019-02-27T00:35:24.551Z,8.30
2019-02-27T00:37:56.199Z,8.20
2019-02-27T00:40:27.642Z,8.20
2019-02-27T00:42:59.084Z,8.20
2019-02-27T00:45:30.438Z,8.20
2019-02-27T00:48:01.860Z,8.10
2019-02-27T00:50:33.361Z,8.10
2019-02-27T00:53:04.880Z,8.10
2019-02-27T00:55:39.412Z,8.10
2019-02-27T00:58:09.262Z,8.00
2019-02-27T01:00:40.612Z,8.00
2019-02-27T01:03:12.260Z,8.00
2019-02-27T01:05:43.646Z,8.00
2019-02-27T01:08:15.162Z,7.90
2019-02-27T01:10:46.629Z,7.90
2019-02-27T01:15:52.925Z,7.90
2019-02-27T01:18:24.386Z,7.90
2019-02-27T01:20:55.697Z,7.90
2019-02-27T01:23:27.033Z,7.80
2019-02-27T01:25:59.270Z,7.80
2019-02-27T01:28:30.569Z,7.80
2019-02-27T01:31:01.973Z,7.70
2019-02-27T01:33:37.804Z,7.70
2019-02-27T01:36:06.368Z,7.70
2019-02-27T01:38:38.097Z,7.60
2019-02-27T01:41:10.475Z,7.60
2019-02-27T01:43:41.755Z,7.60
2019-02-27T01:46:13.233Z,7.60
2019-02-27T01:48:56.799Z,7.60
2019-02-27T01:51:28.884Z,7.50
2019-02-27T01:54:01.337Z,7.50
2019-02-27T01:56:32.726Z,7.40
2019-02-27T01:59:16.917Z,7.40
2019-02-27T02:01:49.207Z,7.30
2019-02-27T02:04:20.885Z,7.30
2019-02-27T02:07:06.655Z,7.30
2019-02-27T02:09:40.528Z,7.20
2019-02-27T02:12:18.170Z,7.20
2019-02-27T02:14:54.985Z,7.20
2019-02-27T02:18:07.985Z,7.20
2019-02-27T02:21:08.194Z,7.20
2019-02-27T02:23:55.211Z,7.10
2019-02-27T02:26:55.831Z,7.10
2019-02-27T02:30:29.157Z,7.10
2019-02-27T02:33:18.906Z,7.10
2019-02-27T02:36:04.533Z,7.10
2019-02-27T02:39:18.140Z,7.10
2019-02-27T02:42:01.476Z,7.00
2019-02-27T02:44:45.083Z,7.00
2019-02-27T02:47:43.357Z,7.00
2019-02-27T02:50:31.495Z,7.00
2019-02-27T02:53:38.757Z,6.90
2019-02-27T02:56:25.687Z,6.90
2019-02-27T02:59:33.783Z,6.90
2019-02-27T03:02:45.852Z,6.80
2019-02-27T03:05:45.037Z,6.80
2019-02-27T03:08:28.572Z,6.80
2019-02-27T03:11:54.577Z,6.70
2019-02-27T03:14:36.434Z,6.70
2019-02-27T03:17:53.588Z,6.70
2019-02-27T03:21:29.179Z,6.70
2019-02-27T03:24:35.634Z,6.60
2019-02-27T03:27:31.776Z,6.60
2019-02-27T03:30:20.266Z,6.50
2019-02-27T03:33:03.557Z,6.50
2019-02-27T03:36:00.026Z,6.40
2019-02-27T03:38:42.996Z,6.40
2019-02-27T03:42:03.266Z,6.40
2019-02-27T03:45:21.121Z,6.30
2019-02-27T03:48:28.466Z,6.30
2019-02-27T03:51:12.844Z,6.30
2019-02-27T03:54:01.413Z,6.30
2019-02-27T03:57:06.485Z,6.30
2019-02-27T03:59:49.975Z,6.30
2019-02-27T04:02:32.947Z,6.30
2019-02-27T04:05:41.941Z,6.20
2019-02-27T04:09:06.658Z,6.20
2019-02-27T04:11:41.464Z,6.20
2019-02-27T04:14:29.733Z,6.20
2019-02-27T04:17:06.214Z,6.20
2019-02-27T04:19:38.789Z,6.20
2019-02-27T04:22:20.037Z,6.20
2019-02-27T04:24:56.264Z,6.10
2019-02-27T04:27:36.392Z,6.10
2019-02-27T04:30:09.221Z,6.10
2019-02-27T04:32:52.219Z,6.10
2019-02-27T04:35:23.595Z,6.10
2019-02-27T04:37:55.929Z,6.10
2019-02-27T04:40:41.724Z,6.10
2019-02-27T04:43:12.337Z,6.10
2019-02-27T04:45:46.439Z,6.00
2019-02-27T04:48:16.733Z,6.00
2019-02-27T04:50:48.095Z,6.00
2019-02-27T04:53:19.413Z,6.00
2019-02-27T04:55:51.306Z,6.00
2019-02-27T04:58:22.725Z,6.00
2019-02-27T05:00:53.926Z,6.00
2019-02-27T05:03:25.791Z,6.00
2019-02-27T05:05:58.365Z,6.00
2019-02-27T05:08:29.676Z,5.90
2019-02-27T05:11:00.990Z,5.90
2019-02-27T05:13:44.323Z,5.90
2019-02-27T05:16:15.778Z,5.80
2019-02-27T05:19:03.729Z,5.80
2019-02-27T05:21:30.700Z,5.90
2019-02-27T05:24:13.722Z,5.80
2019-02-27T05:26:45.105Z,5.80
2019-02-27T05:29:16.431Z,5.80
2019-02-27T05:31:59.626Z,5.80
2019-02-27T05:34:31.116Z,5.80
2019-02-27T05:37:05.030Z,5.80
2019-02-27T05:39:56.391Z,5.80
2019-02-27T05:42:27.690Z,5.80
2019-02-27T05:44:58.904Z,5.80
2019-02-27T05:47:30.361Z,5.80
2019-02-27T05:50:01.677Z,5.80
2019-02-27T05:52:32.979Z,5.80
2019-02-27T05:55:15.992Z,5.80
2019-02-27T05:57:47.415Z,5.80
2019-02-27T06:00:19.677Z,5.70
2019-02-27T06:02:51.146Z,5.70
2019-02-27T06:05:22.551Z,5.80
2019-02-27T06:08:05.673Z,5.80
2019-02-27T06:10:56.583Z,5.70
2019-02-27T06:13:27.972Z,5.70
2019-02-27T06:16:02.888Z,5.70
2019-02-27T06:18:32.315Z,5.70
2019-02-27T06:21:03.789Z,5.70
2019-02-27T06:23:47.299Z,5.70
2019-02-27T06:26:18.846Z,5.70
2019-02-27T06:28:50.210Z,5.70
2019-02-27T06:31:21.656Z,5.70
2019-02-27T06:34:05.144Z,5.70
2019-02-27T06:36:39.217Z,5.60
2019-02-27T06:39:09.517Z,5.70
2019-02-27T06:41:40.841Z,5.70
2019-02-27T06:44:12.355Z,5.70
2019-02-27T06:46:44.579Z,5.70
2019-02-27T06:49:18.224Z,5.70
2019-02-27T06:52:01.525Z,5.70
2019-02-27T06:57:10.824Z,5.70
2019-02-27T06:59:42.177Z,5.70
2019-02-27T07:02:13.494Z,5.70
2019-02-27T07:04:44.810Z,5.80
2019-02-27T07:07:28.770Z,5.80
2019-02-27T07:10:13.405Z,5.80
2019-02-27T07:12:44.890Z,5.70
2019-02-27T07:15:17.238Z,5.80
2019-02-27T07:17:48.731Z,5.80
2019-02-27T07:20:24.033Z,5.80
2019-02-27T07:22:53.359Z,5.90
2019-02-27T07:25:24.703Z,5.90
2019-02-27T07:27:56.119Z,6.00
2019-02-27T07:30:42.325Z,6.00
2019-02-27T07:33:24.641Z,6.10
2019-02-27T07:35:56.057Z,6.20
2019-02-27T07:38:27.745Z,6.20
2019-02-27T07:40:59.022Z,6.30
2019-02-27T07:43:30.697Z,6.30
2019-02-27T07:46:02.269Z,6.40
2019-02-27T07:48:34.560Z,6.50
2019-02-27T07:51:05.833Z,6.50
2019-02-27T07:53:37.203Z,6.70
2019-02-27T07:56:08.693Z,6.80
2019-02-27T07:58:39.931Z,7.00
2019-02-27T08:01:24.134Z,7.30
2019-02-27T08:03:56.630Z,7.50
2019-02-27T08:06:28.089Z,7.80
2019-02-27T08:08:59.458Z,8.00
2019-02-27T08:11:30.794Z,8.20
2019-02-27T08:14:03.347Z,8.40
2019-02-27T08:16:36.986Z,8.50
2019-02-27T08:19:08.838Z,8.70
2019-02-27T08:21:41.716Z,8.70
2019-02-27T08:24:14.355Z,8.90
2019-02-27T08:26:45.641Z,9.00
2019-02-27T08:29:17.020Z,9.10
2019-02-27T08:31:48.300Z,9.20
2019-02-27T08:34:19.958Z,9.40
2019-02-27T08:37:03.580Z,9.40
2019-02-27T08:39:36.311Z,9.60
2019-02-27T08:42:07.593Z,9.70
2019-02-27T08:44:38.924Z,9.80
2019-02-27T08:47:10.858Z,9.90
2019-02-27T08:49:42.282Z,10.00
2019-02-27T08:52:16.233Z,10.10
2019-02-27T08:54:46.885Z,10.20
2019-02-27T08:57:18.455Z,10.30
2019-02-27T08:59:49.888Z,10.50
2019-02-27T09:02:21.356Z,10.60
2019-02-27T09:04:52.729Z,10.80
2019-02-27T09:07:24.045Z,11.00
2019-02-27T09:09:55.470Z,11.10
2019-02-27T09:12:27.003Z,11.30
2019-02-27T09:14:58.689Z,11.60
2019-02-27T09:17:30.761Z,11.90
2019-02-27T09:20:02.635Z,12.40
2019-02-27T09:22:36.743Z,12.90
2019-02-27T09:25:07.576Z,13.40
2019-02-27T09:27:50.327Z,13.80
2019-02-27T09:30:21.761Z,14.10
2019-02-27T09:32:53.041Z,14.50
2019-02-27T09:35:24.527Z,14.60
2019-02-27T09:37:55.949Z,14.70
2019-02-27T09:40:39.652Z,14.80
2019-02-27T09:43:11.764Z,14.80
2019-02-27T09:45:46.208Z,14.80
2019-02-27T09:48:16.289Z,14.80
2019-02-27T09:50:48.979Z,14.90
2019-02-27T09:53:20.380Z,14.90
2019-02-27T09:55:54.398Z,14.90
2019-02-27T09:58:36.617Z,14.90
2019-02-27T10:01:16.321Z,14.90
2019-02-27T10:03:47.707Z,14.90
2019-02-27T10:06:19.187Z,14.90
2019-02-27T10:08:50.539Z,15.00
2019-02-27T10:11:22.424Z,15.00
2019-02-27T10:13:53.850Z,15.00
2019-02-27T10:16:25.238Z,15.10
2019-02-27T10:18:56.533Z,15.10
2019-02-27T10:21:28.028Z,15.20
2019-02-27T10:24:04.550Z,15.20
2019-02-27T10:26:33.528Z,15.30
2019-02-27T10:29:04.910Z,15.40
2019-02-27T10:31:37.388Z,15.50
2019-02-27T10:34:08.757Z,15.60
2019-02-27T10:36:40.169Z,15.80
2019-02-27T10:39:11.556Z,16.10
2019-02-27T10:41:44.866Z,16.40
2019-02-27T10:44:16.443Z,16.80
2019-02-27T10:46:47.867Z,17.30
2019-02-27T10:49:21.695Z,17.80
2019-02-27T10:51:52.532Z,18.30
2019-02-27T10:54:37.025Z,18.60
2019-02-27T10:57:09.262Z,18.80
2019-02-27T10:59:40.541Z,18.90
2019-02-27T11:02:12.510Z,19.00
2019-02-27T11:04:44.747Z,19.10
2019-02-27T11:07:16.820Z,19.20
2019-02-27T11:09:48.112Z,19.30
2019-02-27T11:12:19.600Z,19.50
2019-02-27T11:15:02.618Z,19.70
2019-02-27T11:17:34.226Z,20.00
2019-02-27T11:20:05.838Z,20.10
2019-02-27T11:22:48.967Z,20.30
2019-02-27T11:25:22.661Z,20.40
2019-02-27T11:27:54.204Z,20.60
2019-02-27T11:30:35.683Z,20.80
2019-02-27T11:33:03.986Z,21.20
2019-02-27T11:35:35.423Z,21.70
2019-02-27T11:38:06.862Z,22.40
2019-02-27T11:40:41.615Z,23.10
2019-02-27T11:43:11.372Z,23.80
2019-02-27T11:45:42.806Z,24.40
2019-02-27T11:48:14.233Z,25.00
2019-02-27T11:50:45.609Z,25.60
2019-02-27T11:53:17.032Z,26.00
2019-02-27T11:55:48.377Z,26.00
2019-02-27T11:58:19.776Z,25.80
2019-02-27T12:00:51.136Z,25.40
2019-02-27T12:03:22.590Z,24.90
2019-02-27T12:05:54.960Z,24.60
2019-02-27T12:08:26.866Z,24.30
2019-02-27T12:10:58.257Z,24.00
2019-02-27T12:13:29.564Z,23.80
2019-02-27T12:16:00.904Z,23.60
2019-02-27T12:18:34.506Z,23.60
2019-02-27T12:21:05.374Z,23.90
2019-02-27T12:23:36.703Z,24.60
2019-02-27T12:26:08.105Z,25.30
2019-02-27T12:28:39.672Z,26.00
2019-02-27T12:31:14.160Z,26.70
2019-02-27T12:33:44.316Z,27.30
2019-02-27T12:36:27.320Z,27.90
2019-02-27T12:38:58.753Z,28.60
2019-02-27T12:41:32.519Z,29.40
2019-02-27T12:44:04.355Z,30.30
2019-02-27T12:46:37.050Z,31.10
2019-02-27T12:49:08.523Z,31.70
2019-02-27T12:51:51.351Z,32.20
2019-02-27T12:54:22.950Z,32.90
2019-02-27T12:57:05.927Z,33.60
2019-02-27T12:59:37.204Z,34.20
2019-02-27T13:02:10.806Z,34.90
2019-02-27T13:04:41.762Z,35.40
2019-02-27T13:07:13.171Z,35.90
2019-02-27T13:09:44.614Z,35.90
2019-02-27T13:12:17.384Z,35.40
2019-02-27T13:14:49.385Z,34.80
2019-02-27T13:17:21.431Z,34.20
2019-02-27T13:20:04.994Z,33.60
2019-02-27T13:22:48.282Z,32.90
2019-02-27T13:25:21.389Z,32.30
2019-02-27T13:27:52.696Z,31.90
2019-02-27T13:30:24.184Z,31.50
2019-02-27T13:33:00.671Z,31.10
2019-02-27T13:35:29.551Z,30.80
2019-02-27T13:38:01.570Z,30.50
2019-02-27T13:40:35.633Z,30.50
2019-02-27T13:43:06.267Z,30.50
2019-02-27T13:45:38.527Z,30.30
2019-02-27T13:48:09.927Z,29.90
2019-02-27T13:50:41.264Z,29.40
2019-02-27T13:53:12.689Z,28.90
2019-02-27T13:55:45.391Z,28.30
2019-02-27T13:58:17.197Z,27.60
2019-02-27T14:00:48.580Z,27.00
2019-02-27T14:03:19.943Z,26.40
2019-02-27T14:05:51.200Z,26.00
2019-02-27T14:08:22.547Z,25.50
2019-02-27T14:10:56.647Z,25.10
2019-02-27T14:13:28.268Z,24.70
2019-02-27T14:16:00.816Z,24.40
2019-02-27T14:18:32.964Z,24.10
2019-02-27T14:21:06.860Z,23.90
2019-02-27T14:23:38.992Z,23.60
2019-02-27T14:26:10.539Z,23.40
2019-02-27T14:28:41.820Z,23.20
2019-02-27T14:31:13.250Z,23.00
2019-02-27T14:33:44.706Z,22.90
2019-02-27T14:36:16.134Z,22.70
2019-02-27T14:38:47.413Z,22.50
2019-02-27T14:41:18.786Z,22.30
2019-02-27T14:44:02.242Z,22.20
2019-02-27T14:46:34.572Z,22.00
2019-02-27T14:49:05.912Z,21.80
2019-02-27T14:51:37.341Z,21.70
2019-02-27T14:54:08.645Z,21.60
2019-02-27T14:56:41.724Z,21.50
2019-02-27T14:59:13.301Z,21.40
2019-02-27T15:01:48.388Z,21.40
2019-02-27T15:04:17.647Z,21.30
2019-02-27T15:06:50.360Z,21.20
2019-02-27T15:09:22.057Z,21.20
2019-02-27T15:11:53.454Z,21.10
2019-02-27T15:14:24.806Z,21.00
2019-02-27T15:16:56.109Z,20.90
2019-02-27T15:19:29.995Z,20.80
2019-02-27T15:22:00.627Z,20.80
2019-02-27T15:24:34.748Z,20.70
2019-02-27T15:27:06.097Z,20.60
2019-02-27T15:29:39.588Z,20.60
2019-02-27T15:32:10.844Z,20.50
2019-02-27T15:34:42.738Z,20.50
2019-02-27T15:37:15.428Z,20.40
2019-02-27T15:39:46.927Z,20.30
2019-02-27T15:42:18.833Z,20.20
2019-02-27T15:44:50.271Z,20.20
2019-02-27T15:47:21.782Z,20.10
2019-02-27T15:49:54.793Z,20.00
2019-02-27T15:52:26.396Z,20.20
2019-02-27T15:54:59.270Z,20.30
2019-02-27T15:57:31.186Z,20.30
2019-02-27T16:00:17.758Z,20.40
2019-02-27T16:02:47.942Z,20.60
2019-02-27T16:05:19.557Z,20.70
2019-02-27T16:07:51.139Z,20.70
2019-02-27T16:10:22.902Z,20.70
2019-02-27T16:12:59.842Z,20.70
2019-02-27T16:15:27.721Z,20.60
2019-02-27T16:18:04.334Z,20.50
2019-02-27T16:20:47.037Z,20.40
2019-02-27T16:23:31.021Z,20.20
2019-02-27T16:26:02.460Z,20.10
2019-02-27T16:28:33.892Z,19.90
2019-02-27T16:31:06.365Z,19.70
2019-02-27T16:33:50.547Z,19.60
2019-02-27T16:36:23.482Z,19.50
2019-02-27T16:38:55.121Z,19.30
2019-02-27T16:41:38.297Z,19.20
2019-02-27T16:44:11.127Z,19.10
2019-02-27T16:46:54.734Z,18.90
2019-02-27T16:49:26.313Z,18.80
2019-02-27T16:52:09.408Z,18.70
2019-02-27T17:01:04.125Z,18.30
2019-02-27T17:03:35.507Z,18.20
2019-02-27T17:06:06.981Z,18.10
2019-02-27T17:08:38.302Z,17.90
2019-02-27T17:11:10.181Z,17.80
2019-02-27T17:13:41.417Z,17.70
2019-02-27T17:16:12.964Z,17.60
2019-02-27T17:18:44.453Z,17.40
2019-02-27T17:21:16.590Z,17.40
2019-02-27T17:23:48.047Z,17.30
2019-02-27T17:26:19.672Z,17.10
2019-02-27T17:29:04.017Z,17.10
2019-02-27T17:31:37.128Z,16.90
2019-02-27T17:34:13.517Z,16.80
2019-02-27T17:36:53.813Z,16.70
2019-02-27T17:39:36.900Z,16.60
2019-02-27T17:42:20.442Z,16.50
2019-02-27T17:45:04.220Z,16.40
2019-02-27T17:47:48.475Z,16.30
2019-02-27T17:50:20.029Z,16.20
2019-02-27T17:53:05.853Z,16.10
2019-02-27T17:55:50.721Z,16.00
2019-02-27T17:58:22.483Z,15.90
2019-02-27T18:00:57.319Z,15.80
2019-02-27T18:03:41.782Z,15.70
2019-02-27T18:06:25.712Z,15.60
2019-02-27T18:08:57.046Z,15.50
2019-02-27T18:11:28.337Z,15.50
2019-02-27T18:13:59.688Z,15.40
2019-02-27T18:16:31.181Z,15.30
2019-02-27T18:19:02.605Z,15.20
2019-02-27T18:21:34.425Z,15.10
2019-02-27T18:24:05.914Z,15.00
2019-02-27T18:26:51.149Z,14.90
2019-02-27T18:29:23.069Z,14.90
2019-02-27T18:31:54.489Z,14.80
2019-02-27T18:34:26.858Z,14.70
2019-02-27T18:36:58.219Z,14.70
2019-02-27T18:39:29.685Z,14.60
2019-02-27T18:42:02.325Z,14.50
2019-02-27T18:44:33.962Z,14.50
2019-02-27T18:47:06.716Z,14.40
2019-02-27T18:49:38.366Z,14.40
2019-02-27T18:52:09.896Z,14.30
2019-02-27T18:54:55.628Z,14.20
2019-02-27T18:57:30.310Z,14.20
2019-02-27T19:00:14.534Z,14.10
2019-02-27T19:03:00.422Z,14.00
2019-02-27T19:05:43.853Z,14.00
2019-02-27T19:08:15.525Z,13.90
2019-02-27T19:10:58.790Z,13.80
2019-02-27T19:14:02.354Z,13.70
2019-02-27T19:16:37.014Z,13.60
2019-02-27T19:19:31.877Z,13.50
2019-02-27T19:22:04.377Z,13.40
2019-02-27T19:24:50.868Z,13.30
2019-02-27T19:27:22.649Z,13.20
2019-02-27T19:29:54.018Z,13.10
2019-02-27T19:32:25.890Z,13.10
2019-02-27T19:35:09.322Z,13.00
2019-02-27T19:37:41.091Z,12.90
2019-02-27T19:40:15.300Z,12.90
2019-02-27T19:42:58.223Z,12.80
2019-02-27T19:45:38.131Z,12.70
2019-02-27T19:48:11.682Z,12.70
2019-02-27T19:50:53.568Z,12.60
2019-02-27T19:53:39.369Z,12.60
2019-02-27T19:56:28.901Z,12.50
2019-02-27T19:59:00.381Z,12.40
2019-02-27T20:01:31.764Z,12.40
2019-02-27T20:04:03.274Z,12.30
2019-02-27T20:06:34.862Z,12.20
2019-02-27T20:09:07.390Z,12.20
2019-02-27T20:11:51.771Z,12.10
2019-02-27T20:14:23.217Z,12.10
2019-02-27T20:16:58.514Z,12.00
2019-02-27T20:19:41.525Z,11.90
2019-02-27T20:22:15.379Z,11.90
2019-02-27T20:24:59.450Z,11.80
2019-02-27T20:27:31.795Z,11.70
2019-02-27T20:30:04.099Z,11.70
2019-02-27T20:32:37.423Z,11.60
2019-02-27T20:35:35.231Z,11.60
2019-02-27T20:38:18.750Z,11.50
2019-02-27T20:40:50.240Z,11.50
2019-02-27T20:43:21.580Z,11.40
2019-02-27T20:46:04.966Z,11.30
2019-02-27T20:48:39.499Z,11.30
2019-02-27T20:51:09.764Z,11.20
2019-02-27T20:53:41.373Z,11.20
2019-02-27T20:56:23.909Z,11.20
2019-02-27T20:59:08.730Z,11.10
2019-02-27T21:01:40.305Z,11.00
2019-02-27T21:04:12.877Z,11.00
2019-02-27T21:06:47.887Z,10.90
2019-02-27T21:09:17.577Z,10.80
2019-02-27T21:11:49.404Z,10.80
2019-02-27T21:14:23.606Z,10.70
2019-02-27T21:16:53.885Z,10.70
2019-02-27T21:19:25.238Z,10.60
2019-02-27T21:21:56.510Z,10.60
2019-02-27T21:24:27.896Z,10.50
2019-02-27T21:27:11.183Z,10.50
2019-02-27T21:29:43.304Z,10.40
2019-02-27T21:32:16.082Z,10.40
2019-02-27T21:34:59.734Z,10.30
2019-02-27T21:37:31.359Z,10.30
2019-02-27T21:40:03.365Z,10.30
2019-02-27T21:42:46.121Z,10.20
2019-02-27T21:45:30.222Z,10.20
2019-02-27T21:48:03.668Z,10.20
2019-02-27T21:50:39.555Z,10.10
2019-02-27T21:53:08.483Z,10.10
2019-02-27T21:55:39.765Z,10.00
2019-02-27T21:58:20.031Z,10.00
2019-02-27T22:00:44.966Z,9.90
2019-02-27T22:03:17.429Z,9.90
2019-02-27T22:05:52.686Z,9.90
2019-02-27T22:08:25.242Z,9.80
2019-02-27T22:11:08.356Z,9.80
2019-02-27T22:13:42.200Z,9.70
2019-02-27T22:16:24.127Z,9.60
2019-02-27T22:18:55.445Z,9.60
2019-02-27T22:21:38.340Z,9.50
2019-02-27T22:24:09.704Z,9.50
2019-02-27T22:26:51.259Z,9.40
2019-02-27T22:29:25.239Z,9.40
2019-02-27T22:31:55.735Z,9.30
2019-02-27T22:34:28.022Z,9.30
2019-02-27T22:37:10.785Z,9.20
2019-02-27T22:39:53.649Z,9.20
2019-02-27T22:42:24.991Z,9.20
2019-02-27T22:45:00.625Z,9.10
2019-02-27T22:47:44.413Z,9.10
2019-02-27T22:53:10.355Z,9.00
2019-02-27T22:55:44.614Z,9.00
2019-02-27T22:58:28.348Z,9.00
2019-02-27T23:01:14.971Z,8.90
2019-02-27T23:03:50.448Z,8.90
2019-02-27T23:06:21.872Z,8.80
2019-02-27T23:08:54.466Z,8.80
2019-02-27T23:11:26.599Z,8.70
2019-02-27T23:13:58.057Z,8.70
2019-02-27T23:16:41.161Z,8.70
2019-02-27T23:19:23.981Z,8.60
2019-02-27T23:22:07.643Z,8.60
2019-02-27T23:24:50.345Z,8.60
2019-02-27T23:27:21.745Z,8.50
2019-02-27T23:29:53.133Z,8.50
2019-02-27T23:32:28.363Z,8.40
2019-02-27T23:35:09.441Z,8.40
2019-02-27T23:37:40.780Z,8.40
2019-02-27T23:40:17.031Z,8.40
2019-02-27T23:43:02.237Z,8.30
2019-02-27T23:45:29.822Z,8.30
2019-02-27T23:48:02.240Z,8.30
2019-02-27T23:50:34.449Z,8.20
2019-02-27T23:53:27.165Z,8.20
2019-02-27T23:55:58.179Z,8.20
2019-02-27T23:58:30.329Z,8.20
